Time;durP1;ratioP1;P1;durP2;ratioP2;P2;SDS_P1;SDS_P2;PMS_P1;PMS_P2;Temp;Humidity;BMP_temperature;BMP_pressure;BME280_temperature;BME280_humidity;BME280_pressure;Samples;Min_cycle;Max_cycle;Signal;HPM_P1;HPM_P2
2023/11/19 00:01:47;;;;;;;34.37;16.70;;;2.80;99.90;;;;;;2584841;54;20915;31
2023/11/19 00:04:23;;;;;;;38.70;18.13;;;2.80;99.90;;;;;;2603373;47;21116;31
2023/11/19 00:07:03;;;;;;;34.95;18.25;;;2.80;99.90;;;;;;2584898;54;20884;31
2023/11/19 00:09:39;;;;;;;35.80;17.95;;;2.80;99.90;;;;;;2584772;54;20992;31
2023/11/19 00:12:18;;;;;;;40.03;18.95;;;2.70;99.90;;;;;;2585178;54;20771;31
2023/11/19 00:14:57;;;;;;;43.65;19.80;;;2.70;99.90;;;;;;2585669;54;20027;31
2023/11/19 00:17:31;;;;;;;41.75;18.90;;;2.70;99.90;;;;;;2585499;54;20931;31
2023/11/19 00:20:07;;;;;;;44.33;20.08;;;2.70;99.90;;;;;;2585311;54;20909;31
2023/11/19 00:22:42;;;;;;;40.03;20.47;;;2.70;99.90;;;;;;2585679;54;20954;31
2023/11/19 00:25:18;;;;;;;36.70;19.60;;;2.70;99.90;;;;;;2585634;54;20867;31
2023/11/19 00:27:53;;;;;;;44.20;21.30;;;2.60;99.90;;;;;;2603891;46;20030;31
2023/11/19 00:30:31;;;;;;;38.85;17.65;;;2.60;99.90;;;;;;2585532;54;20775;31
2023/11/19 00:33:05;;;;;;;40.93;17.83;;;2.60;99.90;;;;;;2585540;54;20027;31
2023/11/19 00:35:39;;;;;;;41.30;18.25;;;2.60;99.90;;;;;;2604160;46;20247;31
2023/11/19 00:38:12;;;;;;;36.83;16.88;;;2.60;99.90;;;;;;2701786;39;22394;31
2023/11/19 00:40:47;;;;;;;38.47;18.73;;;2.60;99.90;;;;;;2585727;54;20974;31
2023/11/19 00:43:22;;;;;;;43.40;18.50;;;2.50;99.90;;;;;;2585530;54;20052;31
2023/11/19 00:46:00;;;;;;;41.20;18.20;;;2.50;99.90;;;;;;2585234;54;20889;31
2023/11/19 00:48:35;;;;;;;35.30;16.60;;;2.50;99.90;;;;;;2585551;54;20053;31
2023/11/19 00:51:09;;;;;;;37.42;17.45;;;2.50;99.90;;;;;;2585702;54;20065;31
2023/11/19 00:53:42;;;;;;;37.67;16.47;;;2.40;99.90;;;;;;2585201;54;20113;31
2023/11/19 00:56:17;;;;;;;36.05;18.65;;;2.40;99.90;;;;;;2585472;54;20987;31
2023/11/19 00:58:50;;;;;;;40.10;18.90;;;2.40;99.90;;;;;;2585542;54;20097;31
2023/11/19 01:01:26;;;;;;;43.40;19.95;;;2.30;99.90;;;;;;2585473;54;20831;31
2023/11/19 01:03:59;;;;;;;38.78;18.42;;;2.30;99.90;;;;;;2702422;39;22307;31
2023/11/19 01:06:33;;;;;;;31.55;15.80;;;2.30;99.90;;;;;;2585411;54;20841;31
2023/11/19 01:09:08;;;;;;;37.90;18.20;;;2.20;99.90;;;;;;2585585;54;20966;31
2023/11/19 01:11:42;;;;;;;41.50;18.95;;;2.20;99.90;;;;;;2603515;46;20117;31
2023/11/19 01:14:17;;;;;;;37.50;17.67;;;2.20;99.90;;;;;;2585539;54;20047;31
2023/11/19 01:16:54;;;;;;;38.13;17.75;;;2.20;99.90;;;;;;2585255;54;20026;31
2023/11/19 01:19:28;;;;;;;36.72;17.27;;;2.10;99.90;;;;;;2585649;54;20026;31
2023/11/19 01:22:05;;;;;;;38.30;17.08;;;2.10;99.90;;;;;;2585470;54;20033;31
2023/11/19 01:24:39;;;;;;;41.40;19.00;;;2.10;99.90;;;;;;2585562;54;20030;31
2023/11/19 01:27:13;;;;;;;42.25;19.10;;;2.10;99.90;;;;;;2585467;54;20089;31
2023/11/19 01:29:47;;;;;;;36.85;17.55;;;2.00;99.90;;;;;;2683868;39;22403;31
2023/11/19 01:32:23;;;;;;;33.43;17.30;;;2.00;99.90;;;;;;2585150;54;20053;31
2023/11/19 01:34:58;;;;;;;39.00;17.80;;;2.00;99.90;;;;;;2585846;54;20277;31
2023/11/19 01:37:31;;;;;;;36.83;16.87;;;2.00;99.90;;;;;;2585190;54;20042;31
2023/11/19 01:40:07;;;;;;;39.73;19.13;;;2.00;99.90;;;;;;2604121;46;20026;31
2023/11/19 01:42:41;;;;;;;38.07;17.33;;;2.00;99.90;;;;;;2585179;54;20907;31
2023/11/19 01:45:19;;;;;;;36.88;18.40;;;1.90;99.90;;;;;;2604103;46;20036;31
2023/11/19 01:47:56;;;;;;;42.27;17.10;;;1.90;99.90;;;;;;2585422;54;20030;31
2023/11/19 01:50:30;;;;;;;38.55;18.20;;;1.90;99.90;;;;;;2585637;54;20026;31
2023/11/19 01:53:02;;;;;;;38.92;17.58;;;1.90;99.90;;;;;;2585302;54;20057;31
2023/11/19 01:55:37;;;;;;;32.58;17.13;;;1.90;99.90;;;;;;2585444;54;20030;31
2023/11/19 01:58:10;;;;;;;36.50;16.90;;;1.90;99.90;;;;;;2585711;54;21158;31
2023/11/19 02:00:43;;;;;;;38.55;18.58;;;1.90;99.90;;;;;;2585230;54;20115;31
2023/11/19 02:03:19;;;;;;;39.15;16.85;;;1.90;99.90;;;;;;2585655;54;20782;31
2023/11/19 02:05:52;;;;;;;36.03;16.50;;;1.90;99.90;;;;;;2603631;46;20918;31
2023/11/19 02:08:26;;;;;;;35.80;16.75;;;1.90;99.90;;;;;;2585254;54;20976;31
2023/11/19 02:10:59;;;;;;;35.23;17.10;;;1.90;99.90;;;;;;2585586;54;21155;31
2023/11/19 02:13:35;;;;;;;44.40;17.42;;;1.90;99.90;;;;;;2604054;46;20051;31
2023/11/19 02:16:09;;;;;;;;;;;1.90;99.90;;;;;;2585489;54;20032;31
2023/11/19 02:18:46;;;;;;;36.10;16.35;;;1.90;99.90;;;;;;2585316;54;20799;31
2023/11/19 02:21:21;;;;;;;35.25;17.23;;;1.90;99.90;;;;;;2585133;54;20985;31
2023/11/19 02:23:57;;;;;;;37.80;17.92;;;1.90;99.90;;;;;;2584944;54;20022;31
2023/11/19 02:26:42;;;;;;;38.03;18.27;;;1.90;99.90;;;;;;2683503;39;21030;31
2023/11/19 02:29:18;;;;;;;38.65;17.10;;;1.90;99.90;;;;;;2585293;54;20905;31
2023/11/19 02:31:54;;;;;;;34.42;15.48;;;;;;;;;;2585283;54;20053;31
2023/11/19 02:36:55;;;;;;;31.87;13.33;;;;;;;;;;2585355;54;19946;31
2023/11/19 02:39:29;;;;;;;39.58;17.88;;;2.10;99.90;;;;;;2604077;46;21348;31
2023/11/19 02:42:01;;;;;;;31.43;15.47;;;2.10;99.90;;;;;;2585082;54;20171;31
2023/11/19 02:44:39;;;;;;;31.83;14.15;;;;;;;;;;2604066;46;20035;31
2023/11/19 02:47:15;;;;;;;31.65;14.70;;;2.00;99.90;;;;;;2585102;54;20065;31
2023/11/19 02:49:52;;;;;;;36.20;17.37;;;;;;;;;;2603364;46;20745;31
2023/11/19 02:52:26;;;;;;;35.75;16.50;;;2.00;99.90;;;;;;2585187;54;20045;31
2023/11/19 02:54:58;;;;;;;31.13;14.48;;;;;;;;;;2588392;54;20030;31
2023/11/19 02:57:34;;;;;;;33.85;16.20;;;2.00;99.90;;;;;;2585097;54;20793;31
2023/11/19 03:00:12;;;;;;;40.17;16.83;;;2.00;99.90;;;;;;2701999;39;21239;31
2023/11/19 03:02:47;;;;;;;32.92;15.15;;;1.90;99.90;;;;;;2584986;54;20038;31
2023/11/19 03:05:22;;;;;;;36.90;14.50;;;1.90;99.90;;;;;;2585200;54;20031;31
2023/11/19 03:07:56;;;;;;;38.85;16.55;;;1.90;99.90;;;;;;2603588;46;20026;31
2023/11/19 03:10:31;;;;;;;31.10;15.57;;;1.90;99.90;;;;;;2584851;54;20918;31
2023/11/19 03:13:06;;;;;;;35.83;17.40;;;1.90;99.90;;;;;;2584683;54;20039;31
2023/11/19 03:15:41;;;;;;;34.72;15.35;;;1.80;99.90;;;;;;2585368;54;20049;31
2023/11/19 03:18:14;;;;;;;;;;;1.80;99.90;;;;;;2585299;54;20826;31
2023/11/19 03:20:47;;;;;;;31.65;14.63;;;1.80;99.90;;;;;;2603542;47;19957;31
2023/11/19 03:23:24;;;;;;;33.72;16.13;;;1.80;99.90;;;;;;2584663;54;21014;31
2023/11/19 03:25:56;;;;;;;40.00;18.35;;;1.80;99.90;;;;;;2584628;54;20103;31
2023/11/19 03:28:31;;;;;;;36.45;16.80;;;1.80;99.90;;;;;;2603382;47;20026;31
2023/11/19 03:31:08;;;;;;;33.58;15.50;;;1.80;99.90;;;;;;2584845;54;20950;31
2023/11/19 03:33:43;;;;;;;33.05;16.45;;;1.80;99.90;;;;;;2585241;54;20027;31
2023/11/19 03:36:17;;;;;;;36.20;16.20;;;1.80;99.90;;;;;;2603441;47;20080;31
2023/11/19 03:38:49;;;;;;;33.17;15.00;;;1.80;99.90;;;;;;2584944;54;20559;31
2023/11/19 03:41:24;;;;;;;30.73;14.50;;;1.80;99.90;;;;;;2584825;54;21044;31
2023/11/19 03:43:56;;;;;;;37.53;16.50;;;1.70;99.90;;;;;;2584843;54;20027;31
2023/11/19 03:46:33;;;;;;;32.00;15.20;;;1.80;99.90;;;;;;2585749;54;20022;31
2023/11/19 03:49:07;;;;;;;32.35;14.85;;;1.80;99.90;;;;;;2684105;39;22372;31
2023/11/19 03:51:40;;;;;;;31.20;14.75;;;1.80;99.90;;;;;;2586146;54;20027;31
2023/11/19 03:54:15;;;;;;;36.60;16.10;;;1.70;99.90;;;;;;2585563;54;20045;31
2023/11/19 03:56:47;;;;;;;36.00;16.60;;;1.70;99.90;;;;;;2585935;54;20038;31
2023/11/19 03:59:22;;;;;;;33.22;15.27;;;1.70;99.90;;;;;;2585678;54;20077;31
2023/11/19 04:02:00;;;;;;;32.45;15.20;;;1.70;99.90;;;;;;2585639;54;20991;31
2023/11/19 04:04:35;;;;;;;28.80;14.73;;;1.70;99.90;;;;;;2603976;46;20847;31
2023/11/19 04:07:10;;;;;;;33.53;15.13;;;1.70;99.90;;;;;;2585762;54;20030;31
2023/11/19 04:09:45;;;;;;;31.80;15.10;;;1.70;99.90;;;;;;2585340;54;21029;31
2023/11/19 04:12:21;;;;;;;31.03;14.17;;;1.70;99.90;;;;;;2585409;54;20132;31
2023/11/19 04:14:56;;;;;;;;;;;1.70;99.90;;;;;;2586090;54;20026;31
2023/11/19 04:17:35;;;;;;;33.30;14.25;;;1.70;99.90;;;;;;2604512;46;21065;31
2023/11/19 04:20:10;;;;;;;30.10;14.23;;;1.70;99.90;;;;;;2585311;54;20152;31
2023/11/19 04:22:45;;;;;;;29.75;14.20;;;1.70;99.90;;;;;;2585569;54;20048;31
2023/11/19 04:25:20;;;;;;;25.38;11.80;;;1.70;99.90;;;;;;2604479;46;20081;31
2023/11/19 04:27:55;;;;;;;31.95;14.70;;;1.70;99.90;;;;;;2683744;39;21078;31
2023/11/19 04:30:31;;;;;;;31.50;14.95;;;1.70;99.90;;;;;;2585548;54;20865;31
2023/11/19 04:33:08;;;;;;;;;;;1.70;99.90;;;;;;2586057;54;20937;31
2023/11/19 04:35:41;;;;;;;27.50;12.90;;;1.70;99.90;;;;;;2604189;46;20758;31
2023/11/19 04:38:14;;;;;;;35.05;13.40;;;1.70;99.90;;;;;;2585732;54;20345;31
2023/11/19 04:40:47;;;;;;;33.45;13.55;;;1.70;99.90;;;;;;2604107;46;20907;31
2023/11/19 04:43:20;;;;;;;27.30;13.35;;;1.70;99.90;;;;;;2604084;46;21911;31
2023/11/19 04:45:55;;;;;;;28.25;12.20;;;1.70;99.90;;;;;;2603854;46;21083;31
2023/11/19 04:48:32;;;;;;;27.70;13.10;;;1.70;99.90;;;;;;2585359;54;21092;31
2023/11/19 04:51:13;;;;;;;26.20;12.50;;;1.70;99.90;;;;;;2603928;46;20116;31
2023/11/19 04:53:47;;;;;;;26.50;11.93;;;1.70;99.90;;;;;;2585739;54;20022;31
2023/11/19 04:56:22;;;;;;;31.10;14.38;;;1.70;99.90;;;;;;2585884;54;21124;31
2023/11/19 04:58:57;;;;;;;31.77;12.82;;;1.70;99.90;;;;;;2684016;39;22190;31
2023/11/19 05:01:32;;;;;;;21.95;10.40;;;1.70;99.90;;;;;;2585576;54;20031;31
2023/11/19 05:04:07;;;;;;;28.05;11.98;;;1.80;99.90;;;;;;2604151;46;20026;31
2023/11/19 05:06:41;;;;;;;22.03;10.63;;;1.70;99.90;;;;;;2585634;54;20921;31
2023/11/19 05:09:14;;;;;;;23.05;11.25;;;1.80;99.90;;;;;;2585365;54;20246;31
2023/11/19 05:11:47;;;;;;;21.37;10.80;;;1.80;99.90;;;;;;2602748;46;20907;31
2023/11/19 05:14:24;;;;;;;25.30;11.10;;;1.80;99.90;;;;;;2585505;54;20030;31
2023/11/19 05:16:56;;;;;;;21.02;10.80;;;1.80;99.90;;;;;;2604418;46;20932;31
2023/11/19 05:19:33;;;;;;;25.30;10.83;;;1.80;99.90;;;;;;2585632;54;20901;31
2023/11/19 05:22:08;;;;;;;25.67;11.23;;;1.80;99.90;;;;;;2585862;54;20029;31
2023/11/19 05:24:41;;;;;;;22.65;10.85;;;1.80;99.90;;;;;;2585515;54;20030;31
2023/11/19 05:27:14;;;;;;;25.55;12.73;;;1.90;99.90;;;;;;2585786;54;20026;31
2023/11/19 05:29:47;;;;;;;22.00;10.18;;;1.90;99.90;;;;;;2585326;54;20084;31
2023/11/19 05:32:21;;;;;;;22.80;11.30;;;1.90;99.90;;;;;;2585239;54;20891;31
2023/11/19 05:34:55;;;;;;;22.52;11.02;;;1.90;99.90;;;;;;2603954;46;22453;31
2023/11/19 05:37:30;;;;;;;22.73;11.20;;;1.90;99.90;;;;;;2585522;54;20037;31
2023/11/19 05:40:12;;;;;;;23.75;10.60;;;1.90;99.90;;;;;;2585306;54;20906;31
2023/11/19 05:42:45;;;;;;;23.95;11.07;;;1.90;99.90;;;;;;2603855;46;21121;31
2023/11/19 05:45:18;;;;;;;27.50;10.50;;;2.00;99.90;;;;;;2585417;54;20760;31
2023/11/19 05:47:51;;;;;;;23.40;11.10;;;2.00;99.90;;;;;;2585654;54;20959;31
2023/11/19 05:50:29;;;;;;;24.03;9.83;;;2.00;99.90;;;;;;2585425;54;20089;31
2023/11/19 05:53:05;;;;;;;23.55;11.25;;;2.00;99.90;;;;;;2585308;54;20784;31
2023/11/19 05:55:46;;;;;;;21.00;9.67;;;2.00;99.90;;;;;;2585815;54;20051;31
2023/11/19 05:58:19;;;;;;;22.60;10.67;;;2.10;99.90;;;;;;2585617;54;20313;31
2023/11/19 06:00:54;;;;;;;20.50;10.65;;;2.00;99.90;;;;;;2585527;54;20034;31
2023/11/19 06:03:27;;;;;;;21.80;10.65;;;2.10;99.90;;;;;;2602906;46;20030;31
2023/11/19 06:06:05;;;;;;;22.25;12.10;;;2.10;99.90;;;;;;2604160;46;20042;31
2023/11/19 06:08:40;;;;;;;24.13;10.43;;;2.10;99.90;;;;;;2585058;54;20909;31
2023/11/19 06:11:18;;;;;;;20.47;9.27;;;2.10;99.90;;;;;;2585532;54;20031;31
2023/11/19 06:13:53;;;;;;;20.10;10.40;;;2.10;99.90;;;;;;2585425;54;20068;31
2023/11/19 06:16:26;;;;;;;20.80;10.05;;;2.20;99.90;;;;;;2603801;46;20068;31
2023/11/19 06:19:00;;;;;;;20.58;10.15;;;2.20;99.90;;;;;;2585521;54;20152;31
2023/11/19 06:21:37;;;;;;;20.27;9.87;;;2.20;99.90;;;;;;2585719;54;20916;31
2023/11/19 06:24:12;;;;;;;20.92;10.30;;;2.20;99.90;;;;;;2585188;54;20962;31
2023/11/19 06:26:45;;;;;;;22.63;9.33;;;2.30;99.90;;;;;;2603476;46;20145;31
2023/11/19 06:29:19;;;;;;;25.33;10.10;;;2.20;99.90;;;;;;2585295;54;20027;31
2023/11/19 06:31:53;;;;;;;24.75;10.25;;;2.20;99.90;;;;;;2585266;54;20030;31
2023/11/19 06:34:27;;;;;;;18.27;9.02;;;2.20;99.90;;;;;;2585017;54;20893;31
2023/11/19 06:37:03;;;;;;;23.23;10.82;;;2.30;99.90;;;;;;2585100;54;20053;31
2023/11/19 06:39:37;;;;;;;;;;;2.30;99.90;;;;;;2585439;54;19935;31
2023/11/19 06:42:11;;;;;;;20.50;8.60;;;2.30;99.90;;;;;;2585115;54;20843;31
2023/11/19 06:44:46;;;;;;;21.40;9.30;;;2.30;99.90;;;;;;2585372;54;20153;31
2023/11/19 06:47:19;;;;;;;21.40;9.90;;;2.30;99.90;;;;;;2585178;54;20050;31
2023/11/19 06:49:54;;;;;;;18.45;9.40;;;2.30;99.90;;;;;;2585169;54;20256;31
2023/11/19 06:52:30;;;;;;;19.05;8.85;;;2.30;99.90;;;;;;2584786;54;20761;31
2023/11/19 06:55:06;;;;;;;20.65;10.05;;;2.40;99.90;;;;;;2585175;54;20032;31
2023/11/19 06:57:42;;;;;;;15.95;8.65;;;2.30;99.90;;;;;;2603609;46;20042;31
2023/11/19 07:00:19;;;;;;;18.90;9.90;;;2.30;99.90;;;;;;2603555;46;20962;31
2023/11/19 07:02:54;;;;;;;15.93;9.07;;;2.40;99.90;;;;;;2585131;54;20038;31
2023/11/19 07:05:28;;;;;;;17.85;8.45;;;2.40;99.90;;;;;;2603606;46;20911;31
2023/11/19 07:08:04;;;;;;;18.00;8.33;;;2.40;99.90;;;;;;2585158;54;20026;31
2023/11/19 07:10:38;;;;;;;16.63;8.80;;;2.50;99.90;;;;;;2585323;54;21163;31
2023/11/19 07:13:13;;;;;;;16.33;8.25;;;2.50;99.90;;;;;;2588422;47;20807;31
2023/11/19 07:15:46;;;;;;;18.67;8.67;;;2.50;99.90;;;;;;2603196;47;20986;31
2023/11/19 07:18:21;;;;;;;14.10;7.30;;;2.60;99.90;;;;;;2585177;54;20057;31
2023/11/19 07:20:59;;;;;;;13.35;7.85;;;2.60;99.90;;;;;;2604117;46;20921;31
2023/11/19 07:23:37;;;;;;;17.57;8.40;;;2.70;99.90;;;;;;2585709;54;20050;31
2023/11/19 07:26:11;;;;;;;16.58;7.85;;;2.70;99.90;;;;;;2585828;54;20958;31
2023/11/19 07:28:45;;;;;;;15.13;7.40;;;2.70;99.90;;;;;;2586009;54;20037;31
2023/11/19 07:31:19;;;;;;;16.65;7.50;;;2.80;99.90;;;;;;2585766;54;20053;31
2023/11/19 07:33:52;;;;;;;14.23;7.17;;;2.80;99.90;;;;;;2585673;54;20245;31
2023/11/19 07:36:30;;;;;;;12.30;6.43;;;2.90;99.90;;;;;;2585728;54;20034;31
2023/11/19 07:39:08;;;;;;;16.02;7.80;;;2.90;99.90;;;;;;2585776;54;20081;31
2023/11/19 07:41:44;;;;;;;13.03;7.70;;;2.90;99.90;;;;;;2604167;46;20918;31
2023/11/19 07:44:21;;;;;;;13.30;7.18;;;3.00;99.90;;;;;;2683496;39;21098;31
2023/11/19 07:46:57;;;;;;;14.70;8.10;;;3.00;99.90;;;;;;2585790;54;20764;31
2023/11/19 07:49:35;;;;;;;15.23;7.32;;;3.00;99.90;;;;;;2585853;54;20033;31
2023/11/19 07:52:09;;;;;;;15.63;7.32;;;3.00;99.90;;;;;;2585747;54;20973;31
2023/11/19 07:54:48;;;;;;;12.13;6.87;;;3.10;99.90;;;;;;2603966;46;20979;31
2023/11/19 07:57:24;;;;;;;14.20;6.80;;;3.10;99.90;;;;;;2585779;54;20031;31
2023/11/19 08:00:02;;;;;;;13.27;6.87;;;3.10;99.90;;;;;;2604216;46;20078;31
2023/11/19 08:02:43;;;;;;;;;;;3.10;99.90;;;;;;2585780;54;21126;31
2023/11/19 08:05:18;;;;;;;13.55;7.05;;;3.10;99.90;;;;;;2585413;54;20849;31
2023/11/19 08:08:01;;;;;;;14.00;6.85;;;3.10;99.90;;;;;;2603846;46;20084;31
2023/11/19 08:10:35;;;;;;;15.02;7.93;;;3.10;99.90;;;;;;2585703;54;20111;31
2023/11/19 08:13:11;;;;;;;19.35;8.85;;;3.10;99.90;;;;;;2586182;54;22409;31
2023/11/19 08:15:43;;;;;;;17.40;8.10;;;3.10;99.90;;;;;;2585609;54;20883;31
2023/11/19 08:18:18;;;;;;;15.73;7.45;;;3.10;99.90;;;;;;2585782;54;20060;31
2023/11/19 08:20:53;;;;;;;16.08;7.13;;;3.00;99.90;;;;;;2603807;46;21163;31
2023/11/19 08:23:30;;;;;;;14.15;6.55;;;3.10;99.90;;;;;;2585612;54;21011;31
2023/11/19 08:26:13;;;;;;;12.65;7.15;;;3.10;99.90;;;;;;2585627;54;20085;31
2023/11/19 08:28:52;;;;;;;15.27;7.72;;;3.10;99.90;;;;;;2604202;46;20031;31
2023/11/19 08:31:25;;;;;;;14.43;7.05;;;3.10;99.90;;;;;;2603857;46;20148;31
2023/11/19 08:34:01;;;;;;;14.60;7.40;;;3.10;99.90;;;;;;2600020;46;20817;31
2023/11/19 08:36:36;;;;;;;12.80;7.13;;;3.10;99.90;;;;;;2603987;46;20023;31
2023/11/19 08:39:13;;;;;;;12.40;6.60;;;3.10;99.90;;;;;;2585817;54;20022;31
2023/11/19 08:41:50;;;;;;;14.10;6.97;;;3.00;99.90;;;;;;2603848;46;20797;31
2023/11/19 08:44:30;;;;;;;13.40;7.32;;;3.00;99.90;;;;;;2604339;46;20026;31
2023/11/19 08:47:06;;;;;;;14.03;7.13;;;2.90;99.90;;;;;;2585506;54;20033;31
2023/11/19 08:49:42;;;;;;;18.80;7.47;;;2.90;99.90;;;;;;2585439;54;20746;31
2023/11/19 08:52:20;;;;;;;16.20;7.80;;;2.90;99.90;;;;;;2585480;54;20120;31
2023/11/19 08:54:53;;;;;;;15.50;7.05;;;2.80;99.90;;;;;;2585648;54;20814;31
2023/11/19 08:57:28;;;;;;;15.15;7.03;;;2.80;99.90;;;;;;2585625;54;20058;31
2023/11/19 09:00:09;;;;;;;18.45;7.93;;;2.80;99.90;;;;;;2585372;54;20861;31
2023/11/19 09:05:15;;;;;;;16.97;8.03;;;2.70;99.90;;;;;;2585661;54;21817;31
2023/11/19 09:07:54;;;;;;;18.25;8.98;;;2.60;99.90;;;;;;2604189;46;21024;31
2023/11/19 09:10:30;;;;;;;17.63;7.93;;;2.60;99.90;;;;;;2585556;54;20861;31
2023/11/19 09:13:12;;;;;;;15.00;8.02;;;2.50;99.90;;;;;;2585641;54;20076;31
2023/11/19 09:15:50;;;;;;;16.92;8.20;;;2.50;99.90;;;;;;2585708;54;20938;31
2023/11/19 09:18:26;;;;;;;17.35;7.85;;;2.50;99.90;;;;;;2604232;46;20776;31
2023/11/19 09:21:04;;;;;;;18.70;8.35;;;2.50;99.90;;;;;;2604278;46;22459;31
2023/11/19 09:23:42;;;;;;;19.85;8.57;;;2.50;99.90;;;;;;2585534;54;20057;31
2023/11/19 09:26:18;;;;;;;17.10;7.60;;;2.60;99.90;;;;;;2585049;54;20928;31
2023/11/19 09:28:54;;;;;;;16.90;7.97;;;2.60;99.90;;;;;;2585481;54;20026;31
2023/11/19 09:31:30;;;;;;;;;;;2.60;99.90;;;;;;2585644;54;19935;31
2023/11/19 09:34:03;;;;;;;23.50;8.70;;;2.60;99.90;;;;;;2603957;46;20768;31
2023/11/19 09:36:43;;;;;;;17.90;9.10;;;2.70;99.90;;;;;;2585156;54;20059;31
2023/11/19 09:39:18;;;;;;;17.33;8.10;;;2.70;99.90;;;;;;2604099;46;20233;31
2023/11/19 09:41:57;;;;;;;17.45;8.52;;;2.80;99.90;;;;;;2585119;54;20834;31
2023/11/19 09:44:31;;;;;;;18.48;8.60;;;2.80;99.90;;;;;;2603453;47;20080;31
2023/11/19 09:47:10;;;;;;;16.95;7.63;;;2.80;99.90;;;;;;2585474;54;20027;31
2023/11/19 09:49:43;;;;;;;18.33;8.70;;;2.90;99.90;;;;;;2585381;54;20037;31
2023/11/19 09:52:16;;;;;;;19.95;8.90;;;2.90;99.90;;;;;;2603513;46;20161;31
2023/11/19 09:54:51;;;;;;;17.05;9.30;;;2.90;99.90;;;;;;2585403;54;20871;31
2023/11/19 09:57:25;;;;;;;17.50;8.55;;;3.00;99.90;;;;;;2585485;54;20030;31
2023/11/19 10:00:01;;;;;;;21.05;10.13;;;3.00;99.90;;;;;;2585039;54;20943;31
2023/11/19 10:02:41;;;;;;;19.90;9.10;;;3.10;99.90;;;;;;2585442;54;20023;31
2023/11/19 10:05:16;;;;;;;21.10;9.13;;;3.10;99.90;;;;;;2585168;54;21044;31
2023/11/19 10:07:52;;;;;;;20.65;9.20;;;3.10;99.90;;;;;;2585428;54;20030;31
2023/11/19 10:10:27;;;;;;;18.10;8.95;;;3.10;99.90;;;;;;2585421;54;20026;31
2023/11/19 10:13:01;;;;;;;18.47;8.33;;;3.10;99.90;;;;;;2585449;54;20921;31
2023/11/19 10:15:38;;;;;;;19.63;9.73;;;3.10;99.90;;;;;;2585180;54;21018;31
2023/11/19 10:18:17;;;;;;;19.73;9.07;;;3.20;99.90;;;;;;2585119;54;20842;31
2023/11/19 10:20:51;;;;;;;16.10;8.15;;;3.20;99.90;;;;;;2585021;54;20938;31
2023/11/19 10:23:24;;;;;;;16.15;8.38;;;3.30;99.90;;;;;;2585079;54;20768;31
2023/11/19 10:25:57;;;;;;;20.40;9.15;;;3.30;99.90;;;;;;2584864;54;20030;31
2023/11/19 10:28:32;;;;;;;15.75;8.70;;;3.30;99.90;;;;;;2585129;54;21036;31
2023/11/19 10:31:05;;;;;;;18.75;8.65;;;3.40;99.90;;;;;;2585035;54;20023;31
2023/11/19 10:33:44;;;;;;;19.20;8.43;;;3.50;99.90;;;;;;2585261;54;20766;31
2023/11/19 10:36:19;;;;;;;18.50;8.80;;;3.50;99.90;;;;;;2603453;46;20791;31
2023/11/19 10:38:56;;;;;;;16.98;9.50;;;3.50;99.90;;;;;;2683407;39;22328;31
2023/11/19 10:41:31;;;;;;;17.35;9.30;;;3.60;99.90;;;;;;2585238;54;20022;31
2023/11/19 10:44:06;;;;;;;17.33;8.30;;;3.70;99.90;;;;;;2585431;54;20057;31
2023/11/19 10:46:43;;;;;;;16.53;9.23;;;3.70;99.90;;;;;;2585078;54;20022;31
2023/11/19 10:49:21;;;;;;;21.10;10.10;;;3.80;99.90;;;;;;2585336;54;20027;31
2023/11/19 10:51:59;;;;;;;21.40;9.20;;;3.80;99.90;;;;;;2584987;54;20902;31
2023/11/19 10:54:36;;;;;;;18.30;9.00;;;3.80;99.90;;;;;;2584894;54;20973;31
2023/11/19 10:57:11;;;;;;;16.23;7.47;;;3.90;99.90;;;;;;2585312;54;20875;31
2023/11/19 10:59:45;;;;;;;21.35;8.52;;;3.90;99.90;;;;;;2584887;54;20022;31
2023/11/19 11:02:24;;;;;;;16.45;8.00;;;3.90;99.90;;;;;;2585293;54;20901;31
2023/11/19 11:05:02;;;;;;;16.30;7.50;;;4.00;99.90;;;;;;2585133;54;20030;31
2023/11/19 11:07:37;;;;;;;15.00;7.70;;;4.00;99.90;;;;;;2584922;54;20812;31
2023/11/19 11:10:15;;;;;;;14.15;7.15;;;4.10;99.90;;;;;;2585018;54;20746;31
2023/11/19 11:12:49;;;;;;;15.75;8.00;;;4.00;99.90;;;;;;2603108;46;20956;31
2023/11/19 11:15:26;;;;;;;16.52;8.23;;;4.10;99.90;;;;;;2585063;54;20897;31
2023/11/19 11:18:04;;;;;;;18.10;8.00;;;4.10;99.90;;;;;;2584949;54;20121;31
2023/11/19 11:20:40;;;;;;;15.63;7.13;;;4.10;99.90;;;;;;2584838;54;20150;31
2023/11/19 11:23:53;;;;;;;14.85;8.30;;;4.10;99.90;;;;;;2585408;54;21153;31
2023/11/19 11:26:42;;;;;;;17.05;7.10;;;4.20;99.90;;;;;;2584679;54;20952;31
2023/11/19 11:29:20;;;;;;;10.77;5.80;;;4.30;99.90;;;;;;2603737;47;20881;31
2023/11/19 11:31:58;;;;;;;11.45;5.25;;;4.30;99.90;;;;;;2584699;54;21089;31
2023/11/19 11:34:47;;;;;;;10.98;5.80;;;4.30;99.90;;;;;;2584820;54;20814;31
2023/11/19 11:37:28;;;;;;;10.50;5.55;;;4.30;99.90;;;;;;2584794;54;20805;31
2023/11/19 11:40:05;;;;;;;9.03;4.97;;;4.30;99.90;;;;;;2584806;54;20037;31
2023/11/19 11:42:38;;;;;;;7.60;4.63;;;4.30;99.90;;;;;;2584876;54;20093;31
2023/11/19 11:45:13;;;;;;;8.77;4.43;;;4.40;99.90;;;;;;2603556;47;20033;31
2023/11/19 11:48:16;;;;;;;13.27;4.97;;;4.40;99.90;;;;;;2585015;54;20140;31
2023/11/19 11:50:55;;;;;;;10.10;4.25;;;4.40;99.90;;;;;;2584384;54;20053;31
2023/11/19 11:53:31;;;;;;;10.57;4.73;;;4.40;99.90;;;;;;2753747;31;21243;31
2023/11/19 11:56:08;;;;;;;8.15;5.10;;;4.50;99.90;;;;;;2585027;54;20026;31
2023/11/19 11:58:42;;;;;;;7.93;4.45;;;4.50;99.90;;;;;;2584719;54;20895;31
2023/11/19 12:01:20;;;;;;;10.25;4.80;;;4.50;99.90;;;;;;2584797;54;20023;31
2023/11/19 12:03:55;;;;;;;6.88;4.03;;;4.50;99.90;;;;;;2603013;47;20112;31
2023/11/19 12:06:30;;;;;;;8.25;4.35;;;4.50;99.90;;;;;;2603479;47;20057;31
2023/11/19 12:09:08;;;;;;;9.55;4.15;;;4.60;99.90;;;;;;2585607;54;20088;31
2023/11/19 12:11:41;;;;;;;8.35;4.78;;;4.60;99.90;;;;;;2585968;54;21995;31
2023/11/19 12:14:14;;;;;;;7.70;4.28;;;4.60;99.90;;;;;;2585111;54;20054;31
2023/11/19 12:16:49;;;;;;;9.33;5.37;;;4.60;99.90;;;;;;2585282;54;20033;31
2023/11/19 12:19:22;;;;;;;13.07;5.07;;;4.60;99.90;;;;;;2585801;54;21130;31
2023/11/19 12:21:55;;;;;;;11.40;5.90;;;4.60;99.90;;;;;;2585347;54;20973;31
2023/11/19 12:24:33;;;;;;;8.82;5.03;;;4.70;99.90;;;;;;2585607;54;20033;31
2023/11/19 12:27:09;;;;;;;10.23;5.67;;;4.70;99.90;;;;;;2603433;46;20048;31
2023/11/19 12:29:46;;;;;;;10.10;5.40;;;4.70;99.90;;;;;;2585510;54;21148;31
2023/11/19 12:32:19;;;;;;;10.20;5.30;;;4.70;99.90;;;;;;2585636;54;20145;31
2023/11/19 12:34:55;;;;;;;9.77;5.18;;;4.70;99.90;;;;;;2585041;54;20157;31
2023/11/19 12:37:29;;;;;;;10.00;5.65;;;4.80;99.90;;;;;;2585382;54;20977;31
2023/11/19 12:40:06;;;;;;;10.80;5.80;;;4.90;99.90;;;;;;2585419;54;20957;31
2023/11/19 12:42:39;;;;;;;12.25;5.95;;;4.90;99.90;;;;;;2683624;39;21082;31
2023/11/19 12:45:13;;;;;;;11.90;5.18;;;4.90;99.90;;;;;;2585761;54;20031;31
2023/11/19 12:47:49;;;;;;;11.55;4.97;;;5.00;99.90;;;;;;2585516;54;20977;31
2023/11/19 12:50:24;;;;;;;;;;;5.00;99.90;;;;;;2585588;54;20810;31
2023/11/19 12:53:00;;;;;;;10.20;5.30;;;5.00;99.90;;;;;;2585297;54;19942;31
2023/11/19 12:55:36;;;;;;;9.87;5.13;;;5.10;99.90;;;;;;2585616;54;20035;31
2023/11/19 12:58:09;;;;;;;11.05;5.32;;;5.10;99.90;;;;;;2585102;54;20033;31
2023/11/19 13:00:44;;;;;;;10.73;6.10;;;5.10;99.90;;;;;;2585372;54;20920;31
2023/11/19 13:03:31;;;;;;;13.90;6.10;;;5.20;99.90;;;;;;2584638;54;20821;31
2023/11/19 13:06:07;;;;;;;13.53;6.47;;;5.20;99.90;;;;;;2603590;46;20945;31
2023/11/19 13:08:42;;;;;;;12.07;6.43;;;5.30;99.90;;;;;;2585255;54;20967;31
2023/11/19 13:11:18;;;;;;;11.07;6.77;;;5.30;99.90;;;;;;2585251;54;21005;31
2023/11/19 13:13:55;;;;;;;12.52;7.50;;;5.40;99.90;;;;;;2585281;54;20791;31
2023/11/19 13:16:30;;;;;;;11.37;6.87;;;5.50;99.90;;;;;;2585332;54;20103;31
2023/11/19 13:19:04;;;;;;;17.63;7.60;;;5.50;99.90;;;;;;2585409;54;20026;31
2023/11/19 13:21:39;;;;;;;12.60;7.50;;;5.60;99.90;;;;;;2585599;54;20927;31
2023/11/19 13:24:14;;;;;;;11.90;8.15;;;5.60;99.90;;;;;;2585081;54;20904;31
2023/11/19 13:26:50;;;;;;;14.10;8.90;;;5.70;99.90;;;;;;2603910;46;21932;31
2023/11/19 13:29:23;;;;;;;27.30;15.70;;;5.60;99.90;;;;;;2585431;54;20768;31
2023/11/19 13:31:59;;;;;;;39.75;21.60;;;5.70;99.90;;;;;;2585135;54;20023;31
2023/11/19 13:34:34;;;;;;;27.25;16.10;;;5.70;99.90;;;;;;2585261;54;20761;31
2023/11/19 13:37:09;;;;;;;30.45;19.17;;;5.80;99.90;;;;;;2585159;54;20057;31
2023/11/19 13:39:45;;;;;;;29.80;17.80;;;5.80;99.90;;;;;;2585337;54;19934;31
2023/11/19 13:42:20;;;;;;;20.10;11.15;;;5.80;99.90;;;;;;2585283;54;20283;31
2023/11/19 13:44:53;;;;;;;47.10;26.58;;;5.90;99.90;;;;;;2701670;39;22394;31